Time;durP1;ratioP1;P1;durP2;ratioP2;P2;SDS_P1;SDS_P2;PMS_P1;PMS_P2;Temp;Humidity;BMP_temperature;BMP_pressure;BME280_temperature;BME280_humidity;BME280_pressure;Samples;Min_cycle;Max_cycle;Signal;HPM_P1;HPM_P2
2022/05/07 00:00:41;;;;;;;4.05;3.05;;;;;;;;;;5033999;28;20029;-61
2022/05/07 00:03:07;;;;;;;3.20;2.65;;;;;;;;;;5033631;28;20398;-60
2022/05/07 00:05:33;;;;;;;3.65;3.13;;;;;;;;;;5034166;28;20098;-60
2022/05/07 00:07:59;;;;;;;3.45;3.15;;;;;;;;;;5034000;28;20021;-60
2022/05/07 00:10:26;;;;;;;4.13;3.33;;;;;;;;;;5034242;28;20075;-60
2022/05/07 00:12:53;;;;;;;4.28;3.03;;;;;;;;;;5034069;28;20026;-60
2022/05/07 00:15:19;;;;;;;4.32;2.92;;;;;;;;;;5033725;28;20018;-60
2022/05/07 00:20:30;;;;;;;3.85;2.90;;;;;;;;;;5034349;28;20390;-61
2022/05/07 00:22:57;;;;;;;3.75;2.65;;;;;;;;;;5033387;28;20037;-59
2022/05/07 00:25:23;;;;;;;3.60;3.28;;;;;;;;;;5034029;28;20030;-60
2022/05/07 00:27:49;;;;;;;3.90;2.95;;;;;;;;;;5034138;28;20079;-61
2022/05/07 00:30:15;;;;;;;3.45;2.85;;;;;;;;;;5032090;28;20529;-60
2022/05/07 00:32:41;;;;;;;3.53;2.65;;;;;;;;;;5041784;28;20108;-60
2022/05/07 00:35:10;;;;;;;3.35;2.72;;;;;;;;;;5053271;28;20033;-59
2022/05/07 00:37:36;;;;;;;3.20;2.67;;;;;;;;;;5053882;28;20064;-61
2022/05/07 00:40:02;;;;;;;3.58;3.00;;;;;;;;;;5040503;28;20065;-61
2022/05/07 00:42:28;;;;;;;2.70;2.50;;;;;;;;;;5033898;28;20025;-60
2022/05/07 00:44:54;;;;;;;3.65;3.13;;;;;;;;;;5033168;28;20159;-60
2022/05/07 00:47:24;;;;;;;3.78;2.90;;;;;;;;;;5033483;28;20144;-61
2022/05/07 00:49:52;;;;;;;5.00;3.17;;;;;;;;;;5033504;28;20468;-62
2022/05/07 00:52:18;;;;;;;3.70;3.33;;;;;;;;;;5032177;28;20076;-62
2022/05/07 00:54:45;;;;;;;3.30;2.85;;;;;;;;;;5022994;28;20075;-61
2022/05/07 00:57:12;;;;;;;4.00;3.05;;;;;;;;;;5032632;28;20470;-61
2022/05/07 00:59:38;;;;;;;4.40;2.92;;;;;;;;;;5033568;28;20059;-61
2022/05/07 01:02:04;;;;;;;3.08;2.78;;;;;;;;;;5036764;28;20025;-61
2022/05/07 01:04:30;;;;;;;3.78;3.20;;;;;;;;;;5053801;28;20036;-62
2022/05/07 01:06:56;;;;;;;3.55;3.25;;;;;;;;;;5052543;28;20021;-60
2022/05/07 01:09:22;;;;;;;3.83;2.78;;;;;;;;;;5046667;28;20387;-61
2022/05/07 01:11:49;;;;;;;3.80;2.88;;;;;;;;;;5033060;28;20435;-62
2022/05/07 01:14:15;;;;;;;2.88;2.53;;;;;;;;;;5032415;28;20208;-61
2022/05/07 01:16:41;;;;;;;3.35;2.55;;;;;;;;;;5032906;28;20505;-61
2022/05/07 01:19:07;;;;;;;4.75;3.60;;;;;;;;;;5032192;28;20029;-61
2022/05/07 01:21:33;;;;;;;5.03;3.58;;;;;;;;;;5033412;28;20034;-61
2022/05/07 01:23:59;;;;;;;4.63;3.30;;;;;;;;;;5032207;28;20028;-60
2022/05/07 01:26:26;;;;;;;4.20;3.20;;;;;;;;;;5032298;28;20033;-61
2022/05/07 01:28:58;;;;;;;3.90;2.88;;;;;;;;;;5032868;28;20055;-62
2022/05/07 01:31:25;;;;;;;3.88;3.25;;;;;;;;;;5032835;28;20402;-62
2022/05/07 01:33:52;;;;;;;3.55;3.25;;;;;;;;;;5041825;28;20128;-61
2022/05/07 01:36:19;;;;;;;3.90;3.00;;;;;;;;;;5032138;28;20029;-61
2022/05/07 01:38:45;;;;;;;3.83;3.30;;;;;;;;;;5032333;28;20417;-61
2022/05/07 01:41:11;;;;;;;4.13;3.50;;;;;;;;;;5032149;28;20032;-61
2022/05/07 01:43:37;;;;;;;3.95;3.30;;;;;;;;;;5032250;28;20113;-61
2022/05/07 01:46:03;;;;;;;4.30;2.85;;;;;;;;;;5032106;28;20037;-61
2022/05/07 01:48:30;;;;;;;4.03;3.10;;;;;;;;;;5032554;28;20379;-61
2022/05/07 01:50:56;;;;;;;3.08;2.65;;;;;;;;;;5032808;28;20213;-60
2022/05/07 01:53:24;;;;;;;3.67;2.97;;;;;;;;;;5031821;28;20120;-62
2022/05/07 01:55:50;;;;;;;3.40;2.85;;;;;;;;;;5031390;28;20462;-61
2022/05/07 01:58:16;;;;;;;5.15;3.15;;;;;;;;;;5030944;28;20026;-61
2022/05/07 02:00:42;;;;;;;3.20;2.90;;;;;;;;;;5032508;28;20025;-61
2022/05/07 02:03:09;;;;;;;3.72;2.97;;;;;;;;;;5031355;28;20096;-61
2022/05/07 02:05:35;;;;;;;3.58;3.17;;;;;;;;;;5032368;28;20030;-61
2022/05/07 02:08:02;;;;;;;3.50;3.20;;;;;;;;;;5031508;28;20025;-61
2022/05/07 02:10:28;;;;;;;4.35;3.40;;;;;;;;;;5032052;28;20029;-61
2022/05/07 02:12:54;;;;;;;3.45;3.08;;;;;;;;;;5031779;28;20049;-61
2022/05/07 02:15:20;;;;;;;3.38;3.08;;;;;;;;;;5031549;28;20030;-61
2022/05/07 02:17:46;;;;;;;3.33;2.78;;;;;;;;;;5032149;28;20033;-61
2022/05/07 02:20:12;;;;;;;4.38;3.05;;;;;;;;;;5031256;28;20028;-61
2022/05/07 02:22:39;;;;;;;5.15;3.20;;;;;;;;;;5032255;28;20425;-61
2022/05/07 02:25:05;;;;;;;4.10;3.10;;;;;;;;;;5031310;28;20100;-61
2022/05/07 02:27:31;;;;;;;5.15;3.40;;;;;;;;;;5032332;28;20030;-61
2022/05/07 02:29:57;;;;;;;3.63;2.95;;;;;;;;;;5031818;28;20025;-61
2022/05/07 02:32:23;;;;;;;4.72;2.97;;;;;;;;;;5031454;28;20025;-62
2022/05/07 02:34:49;;;;;;;3.90;3.13;;;;;;;;;;5031825;28;20034;-62
2022/05/07 02:37:15;;;;;;;4.50;3.25;;;;;;;;;;5032812;28;20032;-62
2022/05/07 02:39:41;;;;;;;3.47;3.00;;;;;;;;;;5036181;28;20538;-61
2022/05/07 02:44:52;;;;;;;3.45;3.00;;;;;;;;;;5028897;28;20044;-61
2022/05/07 02:47:18;;;;;;;3.92;3.25;;;;;;;;;;5024894;28;20025;-61
2022/05/07 02:49:44;;;;;;;2.58;2.38;;;;;;;;;;5024560;28;20076;-61
2022/05/07 02:52:10;;;;;;;4.45;3.40;;;;;;;;;;5022992;28;20089;-61
2022/05/07 02:54:36;;;;;;;4.45;3.40;;;;;;;;;;5025145;28;20026;-61
2022/05/07 02:57:02;;;;;;;5.15;3.38;;;;;;;;;;5024616;28;20029;-60
2022/05/07 02:59:29;;;;;;;4.60;3.50;;;;;;;;;;5023849;28;20056;-62
2022/05/07 03:01:55;;;;;;;3.83;3.40;;;;;;;;;;5027138;28;20021;-61
2022/05/07 03:04:21;;;;;;;3.47;2.90;;;;;;;;;;5023655;28;20067;-62
2022/05/07 03:06:48;;;;;;;4.35;3.20;;;;;;;;;;5028428;28;20034;-62
2022/05/07 03:09:14;;;;;;;3.58;3.17;;;;;;;;;;5022446;28;20022;-61
2022/05/07 03:11:40;;;;;;;4.05;3.28;;;;;;;;;;5024470;28;20048;-61
2022/05/07 03:14:09;;;;;;;3.55;3.15;;;;;;;;;;5024114;28;20037;-61
2022/05/07 03:16:35;;;;;;;3.15;2.85;;;;;;;;;;5030397;28;20036;-61
2022/05/07 03:19:02;;;;;;;3.22;2.80;;;;;;;;;;5024395;28;20018;-60
2022/05/07 03:21:28;;;;;;;5.03;3.65;;;;;;;;;;5025005;28;20022;-61
2022/05/07 03:23:55;;;;;;;3.45;3.05;;;;;;;;;;5024890;28;20460;-62
2022/05/07 03:26:22;;;;;;;3.80;3.03;;;;;;;;;;5026060;28;20056;-59
2022/05/07 03:28:48;;;;;;;4.30;3.00;;;;;;;;;;5025620;28;20057;-62
2022/05/07 03:31:15;;;;;;;4.53;2.97;;;;;;;;;;5023947;28;20095;-61
2022/05/07 03:33:41;;;;;;;4.38;3.17;;;;;;;;;;5030491;28;20381;-61
2022/05/07 03:36:09;;;;;;;4.28;3.17;;;;;;;;;;5022371;28;20067;-61
2022/05/07 03:38:35;;;;;;;3.63;3.15;;;;;;;;;;5026860;28;20490;-61
2022/05/07 03:41:03;;;;;;;4.18;3.00;;;;;;;;;;5023178;28;20022;-60
2022/05/07 03:43:29;;;;;;;3.63;3.05;;;;;;;;;;5023163;28;20018;-62
2022/05/07 03:45:55;;;;;;;3.80;3.17;;;;;;;;;;5025446;28;20037;-62
2022/05/07 03:48:21;;;;;;;4.22;3.05;;;;;;;;;;5021698;28;20022;-61
2022/05/07 03:50:47;;;;;;;4.03;3.17;;;;;;;;;;5022781;28;20484;-60
2022/05/07 03:53:31;;;;;;;3.30;2.78;;;;;;;;;;5021555;28;20387;-61
2022/05/07 03:56:02;;;;;;;3.25;2.95;;;;;;;;;;5024601;28;20067;-60
2022/05/07 03:58:29;;;;;;;3.80;3.33;;;;;;;;;;5025111;28;20018;-61
2022/05/07 04:00:55;;;;;;;4.18;3.60;;;;;;;;;;5022335;28;20105;-61
2022/05/07 04:03:22;;;;;;;3.10;2.80;;;;;;;;;;5025858;28;20025;-61
2022/05/07 04:05:48;;;;;;;4.85;3.50;;;;;;;;;;5028219;28;20037;-61
2022/05/07 04:08:14;;;;;;;4.82;3.03;;;;;;;;;;5033279;28;20034;-61
2022/05/07 04:10:40;;;;;;;3.83;3.38;;;;;;;;;;5034477;28;20017;-61
2022/05/07 04:13:08;;;;;;;3.63;3.05;;;;;;;;;;5033347;28;20425;-61
2022/05/07 04:15:34;;;;;;;3.40;2.85;;;;;;;;;;5034544;28;20087;-61
2022/05/07 04:18:00;;;;;;;4.93;3.55;;;;;;;;;;5034001;28;20136;-58
2022/05/07 04:20:26;;;;;;;5.50;2.90;;;;;;;;;;5033889;28;20430;-61
2022/05/07 04:22:52;;;;;;;3.60;3.03;;;;;;;;;;5034248;28;20034;-61
2022/05/07 04:25:18;;;;;;;4.57;3.10;;;;;;;;;;5033461;28;20021;-61
2022/05/07 04:27:45;;;;;;;4.13;2.85;;;;;;;;;;5034251;28;20485;-61
2022/05/07 04:30:11;;;;;;;4.15;3.58;;;;;;;;;;5033215;28;20029;-61
2022/05/07 04:32:37;;;;;;;3.63;2.75;;;;;;;;;;5039599;28;20036;-61
2022/05/07 04:35:05;;;;;;;3.33;3.03;;;;;;;;;;5033612;28;20029;-60
2022/05/07 04:37:31;;;;;;;4.15;2.90;;;;;;;;;;5033718;28;20125;-61
2022/05/07 04:39:56;;;;;;;4.35;3.70;;;;;;;;;;5034101;28;20128;-61
2022/05/07 04:42:22;;;;;;;3.38;2.95;;;;;;;;;;5032452;28;20033;-61
2022/05/07 04:44:48;;;;;;;3.17;2.70;;;;;;;;;;5033682;28;20033;-61
2022/05/07 04:47:14;;;;;;;3.28;2.90;;;;;;;;;;5033104;28;20033;-61
2022/05/07 04:49:41;;;;;;;4.00;3.25;;;;;;;;;;5033807;28;20056;-61
2022/05/07 04:52:07;;;;;;;3.17;2.85;;;;;;;;;;5032896;28;20048;-60
2022/05/07 04:54:33;;;;;;;3.45;3.15;;;;;;;;;;5032458;28;20485;-61
2022/05/07 04:56:59;;;;;;;4.13;3.20;;;;;;;;;;5033660;28;20072;-61
2022/05/07 04:59:26;;;;;;;4.47;3.30;;;;;;;;;;5032695;28;20172;-61
2022/05/07 05:01:52;;;;;;;3.97;2.88;;;;;;;;;;5035416;28;20477;-61
2022/05/07 05:04:18;;;;;;;3.13;2.83;;;;;;;;;;5038527;28;20103;-61
2022/05/07 05:06:45;;;;;;;3.85;3.45;;;;;;;;;;5033383;28;20037;-61
2022/05/07 05:09:12;;;;;;;3.45;2.72;;;;;;;;;;5032679;28;20029;-61
2022/05/07 05:11:39;;;;;;;3.78;3.00;;;;;;;;;;5033335;28;20026;-61
2022/05/07 05:16:50;;;;;;;5.10;3.47;;;;;;;;;;5033061;28;20156;-61
2022/05/07 05:19:16;;;;;;;3.70;2.80;;;;;;;;;;5032836;28;20036;-62
2022/05/07 05:21:42;;;;;;;4.10;3.03;;;;;;;;;;5032895;28;20033;-61
2022/05/07 05:24:08;;;;;;;5.57;3.17;;;;;;;;;;5031971;28;20034;-60
2022/05/07 05:26:34;;;;;;;3.50;3.10;;;;;;;;;;5032845;28;20059;-61
2022/05/07 05:29:00;;;;;;;12.00;3.60;;;;;;;;;;5032647;28;20028;-61
2022/05/07 05:31:31;;;;;;;5.25;3.25;;;;;;;;;;5032384;28;20175;-61
2022/05/07 05:33:59;;;;;;;5.40;3.03;;;;;;;;;;5035681;28;20105;-61
2022/05/07 05:36:30;;;;;;;4.22;3.67;;;;;;;;;;5018753;28;20674;-61
2022/05/07 05:38:56;;;;;;;3.33;3.03;;;;;;;;;;5012519;28;20049;-61
2022/05/07 05:41:22;;;;;;;4.93;3.60;;;;;;;;;;5026517;28;20470;-63
2022/05/07 05:43:48;;;;;;;3.80;3.30;;;;;;;;;;5032436;28;20541;-63
2022/05/07 05:46:14;;;;;;;3.00;2.70;;;;;;;;;;5031998;28;20229;-61
2022/05/07 05:48:40;;;;;;;5.50;2.80;;;;;;;;;;5032555;28;20041;-61
2022/05/07 05:51:07;;;;;;;3.60;2.97;;;;;;;;;;5032677;28;20075;-60
2022/05/07 05:53:33;;;;;;;3.70;3.15;;;;;;;;;;5028261;28;20034;-64
2022/05/07 05:56:00;;;;;;;4.05;2.80;;;;;;;;;;5032671;28;20090;-63
2022/05/07 05:58:32;;;;;;;3.83;3.25;;;;;;;;;;5031302;28;20102;-63
2022/05/07 06:00:58;;;;;;;5.57;3.03;;;;;;;;;;5032801;28;20113;-65
2022/05/07 06:03:25;;;;;;;4.72;2.60;;;;;;;;;;5044330;28;20086;-63
2022/05/07 06:05:51;;;;;;;4.55;3.05;;;;;;;;;;5028410;28;20022;-65
2022/05/07 06:08:17;;;;;;;4.10;3.25;;;;;;;;;;5020832;28;20497;-63
2022/05/07 06:10:43;;;;;;;5.55;2.92;;;;;;;;;;5023903;28;20026;-63
2022/05/07 06:13:09;;;;;;;3.78;3.00;;;;;;;;;;5022025;28;20033;-61
2022/05/07 06:15:35;;;;;;;3.60;3.00;;;;;;;;;;5022738;28;20040;-65
2022/05/07 06:18:01;;;;;;;3.30;2.97;;;;;;;;;;5023665;28;20022;-65
2022/05/07 06:20:27;;;;;;;3.55;2.65;;;;;;;;;;5021225;28;20591;-64
2022/05/07 06:22:57;;;;;;;3.72;2.92;;;;;;;;;;5022489;28;20034;-63
2022/05/07 06:28:08;;;;;;;2.83;2.42;;;;;;;;;;5024013;28;20564;-62
2022/05/07 06:30:35;;;;;;;4.32;2.67;;;;;;;;;;5019785;28;20060;-66
2022/05/07 06:33:01;;;;;;;3.90;3.17;;;;;;;;;;5026704;28;20025;-66
2022/05/07 06:35:27;;;;;;;4.20;2.95;;;;;;;;;;5020970;28;20021;-63
2022/05/07 06:37:53;;;;;;;6.32;2.92;;;;;;;;;;5022060;28;20036;-64
2022/05/07 06:40:20;;;;;;;6.80;3.20;;;;;;;;;;5018406;28;20050;-63
2022/05/07 06:42:46;;;;;;;4.78;2.97;;;;;;;;;;5014115;28;20026;-65
2022/05/07 06:45:13;;;;;;;3.80;3.22;;;;;;;;;;5031021;28;20410;-62
2022/05/07 06:47:39;;;;;;;4.25;3.10;;;;;;;;;;5031940;28;20075;-64
2022/05/07 06:50:05;;;;;;;8.40;3.15;;;;;;;;;;5031646;28;20060;-66
2022/05/07 06:52:31;;;;;;;3.30;2.95;;;;;;;;;;5030802;28;20193;-65
2022/05/07 06:54:57;;;;;;;3.40;2.95;;;;;;;;;;5031137;28;20481;-63
2022/05/07 06:57:24;;;;;;;6.40;3.80;;;;;;;;;;5030849;28;20037;-64
2022/05/07 06:59:50;;;;;;;5.65;3.63;;;;;;;;;;5031543;28;20487;-65
2022/05/07 07:02:16;;;;;;;6.10;3.60;;;;;;;;;;5030355;28;20029;-64
2022/05/07 07:04:42;;;;;;;4.93;3.78;;;;;;;;;;5031873;28;20111;-65
2022/05/07 07:07:08;;;;;;;4.60;3.50;;;;;;;;;;5031477;28;20021;-65
2022/05/07 07:09:35;;;;;;;6.15;4.03;;;;;;;;;;5030249;28;20525;-65
2022/05/07 07:12:01;;;;;;;7.80;3.90;;;;;;;;;;5031114;28;20029;-65
2022/05/07 07:14:27;;;;;;;7.05;4.25;;;;;;;;;;5031087;28;20044;-65
2022/05/07 07:16:54;;;;;;;5.18;3.78;;;;;;;;;;5031828;28;20104;-64
2022/05/07 07:19:20;;;;;;;5.18;3.78;;;;;;;;;;5031075;28;20018;-65
2022/05/07 07:21:49;;;;;;;5.97;3.67;;;;;;;;;;5031476;28;20035;-65
2022/05/07 07:24:17;;;;;;;5.65;3.70;;;;;;;;;;5032187;28;20038;-61
2022/05/07 07:26:44;;;;;;;7.18;4.22;;;;;;;;;;5035395;28;20116;-65
2022/05/07 07:29:10;;;;;;;4.25;3.45;;;;;;;;;;5034930;28;20467;-65
2022/05/07 07:31:36;;;;;;;10.48;5.40;;;;;;;;;;5034553;28;20030;-66
2022/05/07 07:34:02;;;;;;;9.10;4.10;;;;;;;;;;5041336;28;20466;-65
2022/05/07 07:36:28;;;;;;;5.53;3.75;;;;;;;;;;5034000;28;20025;-65
2022/05/07 07:38:54;;;;;;;9.93;4.55;;;;;;;;;;5034897;28;20057;-65
2022/05/07 07:41:20;;;;;;;6.53;4.05;;;;;;;;;;5034297;28;20018;-67
2022/05/07 07:43:46;;;;;;;5.32;3.95;;;;;;;;;;5034859;28;20021;-61
2022/05/07 07:48:58;;;;;;;5.30;3.90;;;;;;;;;;5033974;28;20040;-61
2022/05/07 07:51:24;;;;;;;10.32;4.07;;;;;;;;;;5032458;28;20033;-60
2022/05/07 07:53:50;;;;;;;5.88;4.68;;;;;;;;;;5021181;28;20137;-61
2022/05/07 07:56:16;;;;;;;4.90;3.53;;;;;;;;;;5013989;28;20037;-60
2022/05/07 07:58:42;;;;;;;7.30;3.47;;;;;;;;;;5032956;28;20025;-60
2022/05/07 08:01:08;;;;;;;5.63;3.30;;;;;;;;;;5034510;28;20026;-61
2022/05/07 08:03:34;;;;;;;4.93;3.05;;;;;;;;;;5049272;28;20261;-60
2022/05/07 08:06:00;;;;;;;6.43;3.55;;;;;;;;;;5054660;28;20036;-61
2022/05/07 08:13:56;;;;;;;8.98;3.67;;;;;;;;;;5040469;28;20052;-59
2022/05/07 08:16:22;;;;;;;9.68;4.65;;;;;;;;;;5033736;28;20026;-60
2022/05/07 08:18:50;;;;;;;6.35;3.38;;;;;;;;;;5034114;28;20045;-59
2022/05/07 08:21:16;;;;;;;6.05;3.72;;;;;;;;;;5033966;28;20033;-62
2022/05/07 08:23:42;;;;;;;6.00;4.15;;;;;;;;;;5033594;28;20040;-60
2022/05/07 08:26:08;;;;;;;7.57;4.43;;;;;;;;;;5033875;28;20030;-59
2022/05/07 08:28:35;;;;;;;6.55;3.78;;;;;;;;;;5033222;28;20025;-58
2022/05/07 08:31:02;;;;;;;7.50;3.47;;;;;;;;;;5033886;28;20021;-56
2022/05/07 08:33:29;;;;;;;7.28;4.50;;;;;;;;;;5033353;28;20030;-57
2022/05/07 08:35:55;;;;;;;5.20;3.45;;;;;;;;;;5033499;28;20060;-58
2022/05/07 08:38:20;;;;;;;4.57;3.60;;;;;;;;;;5032056;28;20026;-58
2022/05/07 08:40:46;;;;;;;7.70;3.85;;;;;;;;;;5033785;28;20056;-59
2022/05/07 08:43:14;;;;;;;6.35;3.80;;;;;;;;;;5033615;28;20493;-59
2022/05/07 08:45:41;;;;;;;8.43;4.30;;;;;;;;;;5032019;28;20075;-59
2022/05/07 08:48:07;;;;;;;9.10;4.30;;;;;;;;;;5033745;28;20029;-59
2022/05/07 08:50:33;;;;;;;4.72;3.63;;;;;;;;;;5034583;28;20025;-58
2022/05/07 08:52:59;;;;;;;6.53;3.83;;;;;;;;;;5029640;28;20478;-59
2022/05/07 08:55:26;;;;;;;5.25;3.80;;;;;;;;;;5024805;28;20025;-59
2022/05/07 08:57:53;;;;;;;5.40;3.58;;;;;;;;;;5033356;28;20021;-58
2022/05/07 09:00:20;;;;;;;6.10;3.35;;;;;;;;;;5032504;28;20379;-62
2022/05/07 09:02:51;;;;;;;7.18;3.45;;;;;;;;;;5033338;28;20022;-59
2022/05/07 09:05:18;;;;;;;4.17;3.30;;;;;;;;;;5032980;28;20091;-61
2022/05/07 09:07:58;;;;;;;3.63;3.03;;;;;;;;;;5032681;28;20343;-59
2022/05/07 09:10:31;;;;;;;4.93;3.60;;;;;;;;;;5032483;28;20030;-60
2022/05/07 09:13:20;;;;;;;4.70;3.00;;;;;;;;;;5032985;28;20032;-60
2022/05/07 09:15:50;;;;;;;7.10;2.67;;;;;;;;;;5031989;28;20038;-61
2022/05/07 09:18:18;;;;;;;5.05;3.08;;;;;;;;;;5032895;28;20107;-60
2022/05/07 09:20:44;;;;;;;4.60;3.03;;;;;;;;;;5033052;28;20028;-61
2022/05/07 09:23:11;;;;;;;6.18;2.92;;;;;;;;;;5033036;28;20037;-62
2022/05/07 09:25:45;;;;;;;3.03;2.72;;;;;;;;;;5032249;28;20033;-61
2022/05/07 09:28:11;;;;;;;5.10;2.90;;;;;;;;;;5031757;28;20021;-61
2022/05/07 09:30:38;;;;;;;5.60;3.30;;;;;;;;;;5032102;28;20028;-61
2022/05/07 09:33:06;;;;;;;4.32;3.08;;;;;;;;;;5032538;28;20067;-61
2022/05/07 09:35:47;;;;;;;5.05;2.83;;;;;;;;;;5032313;28;20040;-62
2022/05/07 09:38:14;;;;;;;5.28;3.15;;;;;;;;;;5033143;28;20100;-61
2022/05/07 09:40:41;;;;;;;3.72;2.50;;;;;;;;;;5032252;28;20049;-61
2022/05/07 09:43:11;;;;;;;3.45;2.50;;;;;;;;;;5032450;28;20025;-62
2022/05/07 09:45:38;;;;;;;3.47;2.40;;;;;;;;;;5031699;28;20033;-60
2022/05/07 09:48:08;;;;;;;4.90;3.03;;;;;;;;;;5032087;28;20040;-61
2022/05/07 09:58:32;;;;;;;4.47;3.20;;;;;;;;;;5031058;28;20087;-61
2022/05/07 10:01:20;;;;;;;3.83;2.80;;;;;;;;;;5032134;28;20018;-60
2022/05/07 10:04:04;;;;;;;3.67;2.80;;;;;;;;;;5031883;28;20033;-60
2022/05/07 10:06:49;;;;;;;5.80;2.83;;;;;;;;;;5031696;28;20119;-61
2022/05/07 10:09:15;;;;;;;3.90;2.88;;;;;;;;;;5031969;28;20496;-62
2022/05/07 10:11:41;;;;;;;5.22;3.00;;;;;;;;;;5031506;28;20030;-60
2022/05/07 10:14:07;;;;;;;3.53;2.35;;;;;;;;;;5032087;28;20072;-61
2022/05/07 10:16:33;;;;;;;3.05;2.63;;;;;;;;;;5031470;28;20025;-61
2022/05/07 10:19:12;;;;;;;3.50;2.45;;;;;;;;;;5032365;28;20048;-61
2022/05/07 10:21:38;;;;;;;4.18;2.30;;;;;;;;;;5038352;28;20486;-62
2022/05/07 10:24:05;;;;;;;5.38;2.40;;;;;;;;;;5032072;28;20030;-61
2022/05/07 10:26:39;;;;;;;4.10;2.90;;;;;;;;;;5031250;28;20025;-61
2022/05/07 10:29:05;;;;;;;6.60;2.70;;;;;;;;;;5032055;28;20026;-62
2022/05/07 10:31:33;;;;;;;3.58;3.10;;;;;;;;;;5031199;28;20366;-61
2022/05/07 10:34:00;;;;;;;2.78;2.25;;;;;;;;;;5031735;28;20059;-61
2022/05/07 10:36:35;;;;;;;3.05;2.63;;;;;;;;;;5031189;28;20017;-61
2022/05/07 10:39:07;;;;;;;3.47;2.40;;;;;;;;;;5031712;28;20058;-61
2022/05/07 10:41:33;;;;;;;;;;;;;;;;;;5031171;28;20474;-60
2022/05/07 10:44:03;;;;;;;2.78;2.03;;;;;;;;;;5031717;28;20028;-61
2022/05/07 10:46:41;;;;;;;5.78;3.80;;;;;;;;;;5011045;28;20570;-60
2022/05/07 10:49:07;;;;;;;4.40;2.53;;;;;;;;;;5011070;28;20085;-61
2022/05/07 10:51:37;;;;;;;4.38;2.40;;;;;;;;;;5028255;28;20017;-60
2022/05/07 10:54:04;;;;;;;4.18;2.63;;;;;;;;;;5031622;28;20113;-61
2022/05/07 10:56:32;;;;;;;3.70;2.20;;;;;;;;;;5030770;28;20030;-61
2022/05/07 10:58:58;;;;;;;3.53;2.60;;;;;;;;;;5034479;28;20048;-61
2022/05/07 11:01:28;;;;;;;5.03;2.78;;;;;;;;;;5034566;28;20517;-60
2022/05/07 11:04:04;;;;;;;6.90;2.92;;;;;;;;;;5035487;28;20120;-61
2022/05/07 11:06:30;;;;;;;3.80;2.63;;;;;;;;;;5034953;28;20053;-60
2022/05/07 11:08:56;;;;;;;5.90;2.42;;;;;;;;;;5035304;28;20034;-61
2022/05/07 11:11:24;;;;;;;4.80;2.70;;;;;;;;;;5035053;28;20104;-60
2022/05/07 11:13:52;;;;;;;3.75;2.28;;;;;;;;;;5035212;28;20029;-61
2022/05/07 11:16:19;;;;;;;4.53;2.47;;;;;;;;;;5035131;28;20045;-61
2022/05/07 11:18:53;;;;;;;2.88;2.50;;;;;;;;;;5034651;28;20056;-60
2022/05/07 11:21:20;;;;;;;4.05;2.38;;;;;;;;;;5039678;28;20108;-61
2022/05/07 11:23:52;;;;;;;5.38;2.70;;;;;;;;;;5034331;28;20055;-60
2022/05/07 11:26:20;;;;;;;3.88;2.30;;;;;;;;;;5035366;28;20037;-60
2022/05/07 11:28:46;;;;;;;4.03;2.60;;;;;;;;;;5034506;28;20545;-60
2022/05/07 11:31:32;;;;;;;2.92;2.33;;;;;;;;;;5034807;28;20033;-62
2022/05/07 11:34:09;;;;;;;4.28;2.50;;;;;;;;;;5034609;28;20042;-59
2022/05/07 11:36:37;;;;;;;5.38;2.17;;;;;;;;;;5034229;28;20026;-52
2022/05/07 11:39:05;;;;;;;5.50;2.55;;;;;;;;;;5034254;28;20516;-59
2022/05/07 11:41:32;;;;;;;5.40;3.13;;;;;;;;;;5034000;28;20037;-59
2022/05/07 11:46:48;;;;;;;5.07;2.40;;;;;;;;;;5033740;28;20064;-60
2022/05/07 11:49:14;;;;;;;4.43;2.10;;;;;;;;;;5034690;28;20034;-60
2022/05/07 11:51:40;;;;;;;2.78;2.30;;;;;;;;;;5051968;28;20032;-59
2022/05/07 11:54:10;;;;;;;3.55;2.10;;;;;;;;;;5039111;28;20038;-59
2022/05/07 11:56:48;;;;;;;9.32;2.10;;;;;;;;;;5033419;28;20501;-59
2022/05/07 11:59:14;;;;;;;5.97;2.50;;;;;;;;;;5034545;28;20120;-60
2022/05/07 12:01:40;;;;;;;6.80;2.28;;;;;;;;;;5033182;28;20076;-58
2022/05/07 12:04:10;;;;;;;5.85;2.40;;;;;;;;;;5034092;28;20049;-59
2022/05/07 12:06:36;;;;;;;4.88;2.30;;;;;;;;;;5033867;28;20362;-59
2022/05/07 12:09:13;;;;;;;2.80;2.10;;;;;;;;;;5033824;28;20096;-59
2022/05/07 12:11:39;;;;;;;7.28;2.60;;;;;;;;;;5033685;28;20021;-59
2022/05/07 12:14:05;;;;;;;6.10;2.20;;;;;;;;;;5034337;28;20474;-59
2022/05/07 12:19:36;;;;;;;4.28;2.35;;;;;;;;;;4991674;28;20047;-58
2022/05/07 12:30:16;;;;;;;6.53;2.75;;;;;;;;;;5034275;28;20132;-60
2022/05/07 12:32:44;;;;;;;5.30;2.40;;;;;;;;;;5032847;28;20033;-60
2022/05/07 12:35:11;;;;;;;7.10;2.22;;;;;;;;;;5033982;28;20026;-60
2022/05/07 12:37:37;;;;;;;11.13;2.60;;;;;;;;;;5032999;28;20026;-60
2022/05/07 12:40:07;;;;;;;5.28;2.25;;;;;;;;;;5033522;28;20077;-59
2022/05/07 12:42:34;;;;;;;4.72;1.98;;;;;;;;;;5032664;28;20111;-58
2022/05/07 12:45:00;;;;;;;3.13;2.22;;;;;;;;;;5033754;28;20370;-59
2022/05/07 12:47:28;;;;;;;6.43;2.70;;;;;;;;;;5033600;28;20032;-58
2022/05/07 12:49:54;;;;;;;2.58;2.05;;;;;;;;;;5033518;28;20029;-59
2022/05/07 12:52:22;;;;;;;3.00;2.28;;;;;;;;;;5033733;28;20045;-59
2022/05/07 12:54:48;;;;;;;3.35;2.10;;;;;;;;;;5032426;28;20021;-58
2022/05/07 12:57:14;;;;;;;7.47;3.33;;;;;;;;;;5033622;28;20194;-58
2022/05/07 12:59:41;;;;;;;2.58;1.85;;;;;;;;;;5032615;28;20029;-59
2022/05/07 13:02:08;;;;;;;4.10;2.60;;;;;;;;;;5033345;28;20025;-59
2022/05/07 13:04:34;;;;;;;2.45;1.88;;;;;;;;;;5032624;28;20047;-58
2022/05/07 13:07:01;;;;;;;3.65;1.90;;;;;;;;;;5033302;28;20356;-60
2022/05/07 13:09:27;;;;;;;5.20;2.78;;;;;;;;;;5032721;28;20465;-59
2022/05/07 13:11:53;;;;;;;2.45;2.20;;;;;;;;;;5032624;28;20116;-58
2022/05/07 13:14:20;;;;;;;2.45;2.03;;;;;;;;;;5032800;28;20030;-59
2022/05/07 13:16:48;;;;;;;5.43;2.15;;;;;;;;;;5032187;28;20025;-59
2022/05/07 13:19:14;;;;;;;2.78;2.03;;;;;;;;;;5033049;28;20025;-59
2022/05/07 13:21:41;;;;;;;4.80;1.98;;;;;;;;;;5031658;28;20078;-58
2022/05/07 13:24:11;;;;;;;5.10;2.63;;;;;;;;;;5029453;28;20037;-60
2022/05/07 13:26:37;;;;;;;2.65;2.15;;;;;;;;;;5012544;28;20026;-59
2022/05/07 13:29:04;;;;;;;4.78;2.40;;;;;;;;;;5032053;28;20029;-60
2022/05/07 13:31:30;;;;;;;4.35;2.13;;;;;;;;;;5032373;28;20036;-64
2022/05/07 13:33:56;;;;;;;3.15;2.28;;;;;;;;;;5032897;28;20112;-60
2022/05/07 13:36:23;;;;;;;5.32;1.75;;;;;;;;;;5032955;28;20485;-59
2022/05/07 13:38:49;;;;;;;5.35;2.35;;;;;;;;;;5031545;28;20191;-59
2022/05/07 13:41:18;;;;;;;4.03;2.08;;;;;;;;;;5032872;28;20036;-58
2022/05/07 13:43:44;;;;;;;4.25;2.05;;;;;;;;;;5031867;28;20087;-58
2022/05/07 13:46:10;;;;;;;3.22;2.25;;;;;;;;;;5032759;28;20025;-58
2022/05/07 13:48:36;;;;;;;5.53;2.85;;;;;;;;;;5031803;28;20022;-58
2022/05/07 13:51:05;;;;;;;5.75;2.78;;;;;;;;;;5032507;28;20040;-58
2022/05/07 13:53:31;;;;;;;2.75;2.35;;;;;;;;;;5032704;28;20417;-58
2022/05/07 13:55:57;;;;;;;2.60;1.80;;;;;;;;;;5034620;28;20033;-58
2022/05/07 13:58:23;;;;;;;5.07;2.03;;;;;;;;;;5032307;28;20079;-58
2022/05/07 14:00:51;;;;;;;5.40;2.00;;;;;;;;;;5030840;28;20358;-58
2022/05/07 14:03:17;;;;;;;3.97;2.10;;;;;;;;;;5026332;28;20033;-59
2022/05/07 14:05:43;;;;;;;2.58;1.90;;;;;;;;;;5015154;28;20033;-61
2022/05/07 14:08:09;;;;;;;4.65;2.10;;;;;;;;;;5027582;28;20525;-62
2022/05/07 14:10:35;;;;;;;5.57;2.38;;;;;;;;;;5031438;28;20025;-59
2022/05/07 14:13:01;;;;;;;4.95;1.90;;;;;;;;;;5030831;28;20033;-62
2022/05/07 14:15:28;;;;;;;4.60;2.50;;;;;;;;;;5032233;28;20551;-62
2022/05/07 14:17:57;;;;;;;3.42;1.58;;;;;;;;;;5031375;28;20110;-62
2022/05/07 14:20:24;;;;;;;3.80;2.00;;;;;;;;;;5031573;28;20025;-62
2022/05/07 14:22:50;;;;;;;4.07;2.25;;;;;;;;;;5031279;28;20033;-62
2022/05/07 14:25:16;;;;;;;3.08;2.08;;;;;;;;;;5031662;28;20108;-61
2022/05/07 14:27:43;;;;;;;3.78;2.20;;;;;;;;;;5018376;28;20033;-62
2022/05/07 14:30:09;;;;;;;5.65;1.80;;;;;;;;;;5032049;28;20036;-62
2022/05/07 14:32:38;;;;;;;2.55;1.90;;;;;;;;;;5030644;28;20033;-60
2022/05/07 14:35:05;;;;;;;3.45;2.38;;;;;;;;;;5047698;28;20035;-62
2022/05/07 14:37:31;;;;;;;2.72;1.83;;;;;;;;;;5046654;28;20026;-63
2022/05/07 14:39:57;;;;;;;6.20;2.33;;;;;;;;;;5031406;28;20119;-63
2022/05/07 14:42:23;;;;;;;3.05;1.67;;;;;;;;;;5031663;28;20056;-63
2022/05/07 14:44:49;;;;;;;4.57;2.33;;;;;;;;;;5031543;28;20386;-61
2022/05/07 14:47:15;;;;;;;2.40;1.63;;;;;;;;;;5032092;28;20022;-63
2022/05/07 14:49:41;;;;;;;4.20;1.98;;;;;;;;;;5030731;28;20079;-63
2022/05/07 14:52:07;;;;;;;4.43;2.17;;;;;;;;;;5032084;28;20469;-63
2022/05/07 14:54:33;;;;;;;3.35;1.80;;;;;;;;;;5031469;28;20228;-60
2022/05/07 14:57:00;;;;;;;3.25;1.80;;;;;;;;;;5031288;28;20037;-63
2022/05/07 14:59:26;;;;;;;2.00;1.60;;;;;;;;;;5031930;28;20462;-63
2022/05/07 15:01:52;;;;;;;2.70;1.90;;;;;;;;;;5030670;28;20033;-63
2022/05/07 15:04:18;;;;;;;3.50;1.67;;;;;;;;;;5031759;28;20037;-63
2022/05/07 15:06:44;;;;;;;3.63;2.08;;;;;;;;;;5030789;28;20425;-63
2022/05/07 15:11:55;;;;;;;2.47;2.13;;;;;;;;;;5030774;28;20028;-63
2022/05/07 15:14:21;;;;;;;4.20;1.88;;;;;;;;;;5031846;28;20025;-63
2022/05/07 15:16:47;;;;;;;7.32;3.22;;;;;;;;;;5030690;28;20374;-63
2022/05/07 15:19:13;;;;;;;3.95;2.13;;;;;;;;;;5031810;28;20036;-64
2022/05/07 15:21:39;;;;;;;3.92;2.30;;;;;;;;;;5030390;28;20055;-61
2022/05/07 15:24:07;;;;;;;3.17;1.70;;;;;;;;;;5031404;28;20048;-63
2022/05/07 15:26:33;;;;;;;3.05;1.90;;;;;;;;;;5031455;28;20030;-63